createdAt,value
2019-01-21T00:01:28.697Z,35.97
2019-01-21T00:03:55.220Z,36.00
2019-01-21T00:06:21.618Z,35.47
2019-01-21T00:08:48.056Z,36.77
2019-01-21T00:11:14.465Z,34.60
2019-01-21T00:13:40.968Z,36.00
2019-01-21T00:16:07.372Z,35.17
2019-01-21T00:18:33.869Z,36.13
2019-01-21T00:21:00.580Z,37.03
2019-01-21T00:23:26.996Z,40.80
2019-01-21T00:25:53.389Z,36.17
2019-01-21T00:28:20.186Z,36.13
2019-01-21T00:30:46.729Z,36.47
2019-01-21T00:33:13.244Z,39.20
2019-01-21T00:35:39.845Z,44.23
2019-01-21T00:38:06.309Z,47.17
2019-01-21T00:40:32.713Z,39.27
2019-01-21T00:42:59.140Z,36.23
2019-01-21T00:45:25.536Z,39.27
2019-01-21T00:47:52.011Z,55.60
2019-01-21T00:50:18.589Z,39.00
2019-01-21T00:52:45.350Z,38.73
2019-01-21T00:55:12.399Z,41.33
2019-01-21T00:57:38.807Z,41.10
2019-01-21T01:00:11.105Z,39.20
2019-01-21T01:02:37.694Z,38.67
2019-01-21T01:05:06.623Z,36.13
2019-01-21T01:07:33.053Z,35.27
2019-01-21T01:09:59.468Z,37.57
2019-01-21T01:12:25.941Z,34.57
2019-01-21T01:14:52.438Z,37.23
2019-01-21T01:17:18.935Z,36.00
2019-01-21T01:19:45.411Z,36.97
2019-01-21T01:22:11.871Z,37.40
2019-01-21T01:24:38.279Z,36.00
2019-01-21T01:27:04.680Z,38.67
2019-01-21T01:29:31.305Z,37.73
2019-01-21T01:31:57.668Z,36.00
2019-01-21T01:34:24.065Z,35.30
2019-01-21T01:36:50.471Z,36.73
2019-01-21T01:39:16.966Z,35.17
2019-01-21T01:41:43.817Z,35.30
2019-01-21T01:44:10.444Z,35.53
2019-01-21T01:46:36.953Z,35.20
2019-01-21T01:49:03.448Z,34.60
2019-01-21T01:51:29.959Z,36.00
2019-01-21T01:53:56.443Z,34.83
2019-01-21T01:56:22.958Z,37.07
2019-01-21T01:58:49.350Z,37.20
2019-01-21T02:01:15.794Z,36.47
2019-01-21T02:03:42.498Z,53.47
2019-01-21T02:06:09.071Z,46.00
2019-01-21T02:08:35.462Z,48.97
2019-01-21T02:11:01.906Z,45.63
2019-01-21T02:13:28.329Z,45.80
2019-01-21T02:15:54.877Z,44.57
2019-01-21T02:18:21.336Z,43.23
2019-01-21T02:20:47.775Z,38.00
2019-01-21T02:23:15.160Z,38.67
2019-01-21T02:25:45.012Z,36.33
2019-01-21T02:28:16.533Z,39.37
2019-01-21T02:30:48.736Z,38.20
2019-01-21T02:33:21.104Z,37.30
2019-01-21T02:35:53.239Z,37.50
2019-01-21T02:38:25.466Z,39.10
2019-01-21T02:40:57.760Z,40.33
2019-01-21T02:43:31.043Z,40.60
2019-01-21T02:46:03.180Z,39.90
2019-01-21T02:48:35.410Z,41.70
2019-01-21T02:51:07.537Z,43.27
2019-01-21T02:53:39.690Z,42.53
2019-01-21T02:56:11.881Z,42.27
2019-01-21T02:58:44.010Z,41.60
2019-01-21T03:01:16.245Z,40.10
2019-01-21T03:03:48.840Z,42.40
2019-01-21T03:06:21.582Z,42.27
2019-01-21T03:08:53.857Z,38.53
2019-01-21T03:11:26.240Z,39.37
2019-01-21T03:13:58.833Z,39.50
2019-01-21T03:16:31.083Z,38.17
2019-01-21T03:19:03.246Z,41.27
2019-01-21T03:21:35.470Z,38.30
2019-01-21T03:24:07.629Z,39.67
2019-01-21T03:26:39.836Z,38.13
2019-01-21T03:29:12.000Z,39.03
2019-01-21T03:31:45.387Z,38.53
2019-01-21T03:34:17.734Z,39.63
2019-01-21T03:36:49.995Z,39.93
2019-01-21T03:39:23.264Z,40.20
2019-01-21T03:41:55.458Z,40.43
2019-01-21T03:44:30.316Z,41.70
2019-01-21T03:47:02.626Z,40.33
2019-01-21T03:49:34.922Z,38.53
2019-01-21T03:52:07.092Z,41.70
2019-01-21T03:54:33.776Z,39.40
2019-01-21T03:57:06.421Z,39.80
2019-01-21T03:59:38.576Z,36.93
2019-01-21T04:02:10.869Z,38.50
2019-01-21T04:04:43.115Z,41.07
2019-01-21T04:07:15.844Z,40.17
2019-01-21T04:09:48.137Z,39.00
2019-01-21T04:12:20.356Z,41.43
2019-01-21T04:14:52.500Z,41.40
2019-01-21T04:17:25.129Z,40.27
2019-01-21T04:19:57.506Z,40.80
2019-01-21T04:22:29.851Z,42.07
2019-01-21T04:25:02.203Z,42.10
2019-01-21T04:27:34.513Z,40.63
2019-01-21T04:30:06.761Z,41.27
2019-01-21T04:32:39.019Z,40.97
2019-01-21T04:35:11.251Z,41.97
2019-01-21T04:37:43.491Z,41.20
2019-01-21T04:40:15.781Z,41.50
2019-01-21T04:42:47.981Z,40.27
2019-01-21T04:45:20.275Z,43.63
2019-01-21T04:47:52.565Z,42.57
2019-01-21T04:50:24.912Z,44.63
2019-01-21T04:52:57.135Z,45.00
2019-01-21T04:55:29.383Z,42.87
2019-01-21T04:58:01.599Z,42.67
2019-01-21T05:00:34.154Z,41.47
2019-01-21T05:03:06.358Z,40.77
2019-01-21T05:05:38.638Z,41.70
2019-01-21T05:08:10.997Z,42.77
2019-01-21T05:10:45.078Z,39.20
2019-01-21T05:13:17.365Z,42.07
2019-01-21T05:15:49.524Z,42.77
2019-01-21T05:18:21.902Z,42.50
2019-01-21T05:20:54.152Z,43.50
2019-01-21T05:23:26.501Z,41.90
2019-01-21T05:25:58.832Z,41.70
2019-01-21T05:28:31.354Z,41.27
2019-01-21T05:31:03.655Z,44.17
2019-01-21T05:33:35.886Z,41.60
2019-01-21T05:36:08.159Z,41.87
2019-01-21T05:38:40.517Z,42.67
2019-01-21T05:41:12.825Z,43.07
2019-01-21T05:43:45.219Z,42.70
2019-01-21T05:46:17.432Z,41.07
2019-01-21T05:48:49.640Z,42.30
2019-01-21T05:51:21.866Z,40.90
2019-01-21T05:53:53.978Z,39.53
2019-01-21T05:56:26.322Z,42.97
2019-01-21T05:58:58.466Z,44.57
2019-01-21T06:01:30.835Z,46.53
2019-01-21T06:04:03.130Z,45.30
2019-01-21T06:06:35.379Z,43.60
2019-01-21T06:09:07.587Z,41.47
2019-01-21T06:11:39.823Z,41.17
2019-01-21T06:14:12.034Z,43.47
2019-01-21T06:16:44.256Z,45.07
2019-01-21T06:19:16.430Z,41.60
2019-01-21T06:21:48.574Z,44.33
2019-01-21T06:24:20.817Z,43.47
2019-01-21T06:26:52.969Z,45.43
2019-01-21T06:29:25.193Z,45.83
2019-01-21T06:31:57.514Z,43.13
2019-01-21T06:34:29.727Z,46.43
2019-01-21T06:37:01.825Z,44.43
2019-01-21T06:39:34.025Z,43.87
2019-01-21T06:42:06.252Z,42.53
2019-01-21T06:44:38.625Z,42.90
2019-01-21T06:47:10.773Z,46.93
2019-01-21T06:49:43.004Z,50.87
2019-01-21T06:52:15.234Z,46.70
2019-01-21T06:54:47.377Z,42.87
2019-01-21T06:57:19.826Z,41.40
2019-01-21T06:59:51.967Z,45.63
2019-01-21T07:02:24.249Z,44.27
2019-01-21T07:04:56.487Z,45.57
2019-01-21T07:07:28.652Z,46.70
2019-01-21T07:10:01.132Z,39.73
2019-01-21T07:12:33.367Z,40.33
2019-01-21T07:15:05.618Z,53.60
2019-01-21T07:17:38.267Z,44.60
2019-01-21T07:20:10.495Z,42.13
2019-01-21T07:22:42.733Z,54.53
2019-01-21T07:25:14.859Z,46.27
2019-01-21T07:27:47.135Z,63.23
2019-01-21T07:30:19.393Z,54.87
2019-01-21T07:32:51.742Z,52.67
2019-01-21T07:35:24.004Z,60.60
2019-01-21T07:37:56.278Z,45.07
2019-01-21T07:40:28.459Z,46.13
2019-01-21T07:43:00.717Z,77.17
2019-01-21T07:45:32.870Z,46.70
2019-01-21T07:48:05.309Z,45.90
2019-01-21T07:50:37.522Z,45.87
2019-01-21T07:53:09.654Z,42.63
2019-01-21T07:55:41.990Z,107.03
2019-01-21T07:58:14.145Z,62.77
2019-01-21T08:00:46.453Z,63.20
2019-01-21T08:03:18.732Z,47.40
2019-01-21T08:05:50.898Z,44.63
2019-01-21T08:08:23.199Z,43.93
2019-01-21T08:10:55.495Z,39.63
2019-01-21T08:13:27.696Z,42.43
2019-01-21T08:16:00.099Z,42.50
2019-01-21T08:18:32.313Z,44.33
2019-01-21T08:21:04.698Z,44.50
2019-01-21T08:23:37.006Z,42.63
2019-01-21T08:26:09.297Z,43.20
2019-01-21T08:28:41.727Z,41.30
2019-01-21T08:31:13.987Z,41.60
2019-01-21T08:33:46.066Z,43.43
2019-01-21T08:36:18.207Z,40.43
2019-01-21T08:38:50.316Z,41.90
2019-01-21T08:41:22.571Z,43.03
2019-01-21T08:43:54.693Z,39.50
2019-01-21T08:46:26.868Z,39.03
2019-01-21T08:48:58.989Z,40.27
2019-01-21T08:51:31.144Z,41.53
2019-01-21T08:54:03.295Z,36.00
2019-01-21T08:56:36.605Z,53.80
2019-01-21T08:59:09.820Z,45.53
2019-01-21T09:01:41.931Z,42.77
2019-01-21T09:04:14.038Z,40.73
2019-01-21T09:06:46.212Z,39.70
2019-01-21T09:09:18.309Z,38.73
2019-01-21T09:11:50.510Z,38.57
2019-01-21T09:14:22.629Z,40.53
2019-01-21T09:16:54.734Z,38.50
2019-01-21T09:19:26.894Z,40.67
2019-01-21T09:21:59.009Z,52.23
2019-01-21T09:24:31.381Z,45.57
2019-01-21T09:27:03.459Z,54.17
2019-01-21T09:29:35.553Z,51.63
2019-01-21T09:32:07.654Z,73.33
2019-01-21T09:34:39.752Z,43.00
2019-01-21T09:37:11.886Z,42.80
2019-01-21T09:39:44.012Z,42.17
2019-01-21T09:42:16.204Z,41.10
2019-01-21T09:44:48.313Z,49.37
2019-01-21T09:47:14.668Z,45.27
2019-01-21T09:49:43.822Z,44.20
2019-01-21T09:52:10.633Z,40.17
2019-01-21T09:54:37.124Z,42.83
2019-01-21T09:57:03.825Z,39.17
2019-01-21T09:59:30.730Z,40.53
2019-01-21T10:01:57.352Z,44.57
2019-01-21T10:04:29.573Z,35.67
2019-01-21T10:07:01.931Z,39.43
2019-01-21T10:09:34.062Z,44.83
2019-01-21T10:12:06.186Z,46.30
2019-01-21T10:14:38.356Z,43.43
2019-01-21T10:17:10.470Z,38.63
2019-01-21T10:19:42.569Z,45.33
2019-01-21T10:22:14.670Z,38.27
2019-01-21T10:24:46.846Z,40.13
2019-01-21T10:27:19.041Z,42.63
2019-01-21T10:29:51.211Z,41.97
2019-01-21T10:32:23.380Z,35.23
2019-01-21T10:34:55.502Z,34.43
2019-01-21T10:37:27.695Z,39.80
2019-01-21T10:40:00.004Z,33.27
2019-01-21T10:42:32.307Z,44.10
2019-01-21T10:45:05.607Z,37.97
2019-01-21T10:47:39.059Z,31.87
2019-01-21T10:50:11.241Z,35.23
2019-01-21T10:52:44.589Z,30.97
2019-01-21T10:55:16.918Z,30.60
2019-01-21T10:57:49.040Z,32.70
2019-01-21T11:00:21.253Z,30.03
2019-01-21T11:02:53.369Z,30.17
2019-01-21T11:05:25.577Z,28.40
2019-01-21T11:07:57.796Z,29.37
2019-01-21T11:10:29.949Z,30.50
2019-01-21T11:13:02.047Z,36.00
2019-01-21T11:15:34.213Z,29.67
2019-01-21T11:18:06.447Z,30.33
2019-01-21T11:20:38.513Z,30.97
2019-01-21T11:23:10.656Z,30.53
2019-01-21T11:25:42.788Z,27.37
2019-01-21T11:28:14.922Z,28.90
2019-01-21T11:30:47.115Z,30.23
2019-01-21T11:33:19.338Z,31.57
2019-01-21T11:35:51.462Z,30.97
2019-01-21T11:38:23.534Z,30.03
2019-01-21T11:40:55.798Z,31.10
2019-01-21T11:43:29.293Z,32.03
2019-01-21T11:46:02.053Z,29.70
2019-01-21T11:48:34.339Z,28.40
2019-01-21T11:51:06.701Z,31.07
2019-01-21T11:53:38.868Z,28.70
2019-01-21T11:56:11.070Z,29.83
2019-01-21T11:58:43.179Z,29.73
2019-01-21T12:01:15.273Z,28.03
2019-01-21T12:03:47.532Z,29.47
2019-01-21T12:06:17.105Z,29.70
2019-01-21T12:08:49.393Z,30.80
2019-01-21T12:11:21.502Z,27.37
2019-01-21T12:13:53.749Z,26.23
2019-01-21T12:16:25.890Z,26.20
2019-01-21T12:18:58.279Z,27.83
2019-01-21T12:21:30.425Z,21.83
2019-01-21T12:24:02.580Z,23.90
2019-01-21T12:26:36.471Z,24.90
2019-01-21T12:29:08.631Z,28.27
2019-01-21T12:31:40.715Z,26.53
2019-01-21T12:34:12.801Z,30.60
2019-01-21T12:36:44.997Z,29.40
2019-01-21T12:39:17.087Z,28.87
2019-01-21T12:41:49.268Z,30.70
2019-01-21T12:44:21.360Z,28.90
2019-01-21T12:46:53.500Z,29.40
2019-01-21T12:49:25.585Z,28.27
2019-01-21T12:51:57.725Z,27.00
2019-01-21T12:54:29.817Z,29.50
2019-01-21T12:57:01.964Z,27.87
2019-01-21T12:59:34.178Z,29.07
2019-01-21T13:02:06.338Z,30.10
2019-01-21T13:04:38.471Z,29.97
2019-01-21T13:07:10.606Z,24.67
2019-01-21T13:09:42.763Z,25.13
2019-01-21T13:12:15.077Z,28.13
2019-01-21T13:14:47.198Z,26.80
2019-01-21T13:17:19.354Z,23.57
2019-01-21T13:19:51.476Z,26.57
2019-01-21T13:22:23.707Z,91.33
2019-01-21T13:24:55.806Z,34.33
2019-01-21T13:27:27.926Z,33.50
2019-01-21T13:30:00.204Z,49.73
2019-01-21T13:32:32.331Z,54.50
2019-01-21T13:35:04.455Z,40.53
2019-01-21T13:37:36.666Z,42.10
2019-01-21T13:40:08.943Z,34.60
2019-01-21T13:42:42.988Z,35.97
2019-01-21T13:45:16.427Z,34.17
2019-01-21T13:47:48.572Z,32.43
2019-01-21T13:50:20.704Z,33.80
2019-01-21T13:52:52.892Z,30.30
2019-01-21T13:55:25.056Z,32.60
2019-01-21T13:57:57.199Z,29.90
2019-01-21T14:00:29.311Z,28.20
2019-01-21T14:03:01.626Z,26.53
2019-01-21T14:05:33.927Z,27.27
2019-01-21T14:08:06.083Z,27.33
2019-01-21T14:10:38.203Z,26.57
2019-01-21T14:13:10.319Z,21.57
2019-01-21T14:15:42.491Z,27.37
2019-01-21T14:18:14.745Z,29.57
2019-01-21T14:20:46.840Z,32.90
2019-01-21T14:23:25.179Z,34.00
2019-01-21T14:25:53.097Z,28.57
2019-01-21T14:28:25.273Z,29.87
2019-01-21T14:30:57.384Z,29.00
2019-01-21T14:33:29.536Z,46.43
2019-01-21T14:36:01.932Z,30.87
2019-01-21T14:38:34.048Z,32.00
2019-01-21T14:41:06.140Z,31.83
2019-01-21T14:43:39.373Z,37.20
2019-01-21T14:46:11.674Z,32.70
2019-01-21T14:48:44.694Z,37.57
2019-01-21T14:51:16.790Z,31.17
2019-01-21T14:53:50.036Z,30.63
2019-01-21T14:56:22.228Z,44.77
2019-01-21T14:58:54.429Z,29.07
2019-01-21T15:01:26.650Z,31.63
2019-01-21T15:03:58.748Z,26.73
2019-01-21T15:06:31.066Z,29.53
2019-01-21T15:09:03.433Z,38.90
2019-01-21T15:11:36.747Z,58.23
2019-01-21T15:14:08.868Z,29.03
2019-01-21T15:16:40.974Z,28.93
2019-01-21T15:19:13.311Z,34.33
2019-01-21T15:21:45.430Z,31.97
2019-01-21T15:24:17.588Z,42.03
2019-01-21T15:26:51.324Z,36.63
2019-01-21T15:29:23.887Z,45.50
2019-01-21T15:31:56.122Z,32.60
2019-01-21T15:34:28.365Z,32.47
2019-01-21T15:37:00.619Z,31.30
2019-01-21T15:39:32.910Z,32.83
2019-01-21T15:42:05.117Z,30.33
2019-01-21T15:44:37.279Z,31.07
2019-01-21T15:47:09.420Z,33.53
2019-01-21T15:49:41.627Z,30.60
2019-01-21T15:52:13.891Z,35.20
2019-01-21T15:54:46.037Z,36.57
2019-01-21T15:57:19.509Z,33.40
2019-01-21T15:59:51.885Z,34.80
2019-01-21T16:02:24.072Z,31.70
2019-01-21T16:04:56.319Z,32.40
2019-01-21T16:07:28.569Z,33.87
2019-01-21T16:10:00.737Z,32.10
2019-01-21T16:12:32.829Z,33.53
2019-01-21T16:15:05.108Z,34.13
2019-01-21T16:17:37.239Z,31.33
2019-01-21T16:20:09.407Z,32.80
2019-01-21T16:22:41.596Z,29.83
2019-01-21T16:25:13.815Z,27.03
2019-01-21T16:27:45.935Z,27.10
2019-01-21T16:30:18.168Z,29.20
2019-01-21T16:32:50.274Z,30.80
2019-01-21T16:35:22.585Z,87.83
2019-01-21T16:37:55.023Z,57.93
2019-01-21T16:40:27.844Z,30.33
2019-01-21T16:42:54.391Z,79.00
2019-01-21T16:45:20.769Z,36.93
2019-01-21T16:47:47.175Z,30.60
2019-01-21T16:50:13.534Z,32.23
2019-01-21T16:52:40.007Z,42.47
2019-01-21T16:55:07.199Z,42.90
2019-01-21T16:57:33.619Z,28.17
2019-01-21T17:00:00.052Z,28.63
2019-01-21T17:02:26.594Z,30.17
2019-01-21T17:04:53.013Z,31.37
2019-01-21T17:07:19.542Z,36.90
2019-01-21T17:09:45.903Z,28.77
2019-01-21T17:12:12.280Z,30.13
2019-01-21T17:14:38.713Z,25.67
2019-01-21T17:17:05.080Z,27.33
2019-01-21T17:19:31.488Z,24.83
2019-01-21T17:21:57.949Z,29.30
2019-01-21T17:24:24.411Z,26.27
2019-01-21T17:26:51.298Z,28.13
2019-01-21T17:29:17.749Z,26.23
2019-01-21T17:31:44.102Z,25.20
2019-01-21T17:34:10.454Z,31.73
2019-01-21T17:36:37.172Z,24.20
2019-01-21T17:39:06.050Z,24.93
2019-01-21T17:41:33.555Z,27.87
2019-01-21T17:43:59.976Z,28.30
2019-01-21T17:46:26.340Z,29.20
2019-01-21T17:48:57.110Z,28.27
2019-01-21T17:51:24.041Z,29.47
2019-01-21T17:53:51.447Z,23.53
2019-01-21T17:56:18.140Z,24.43
2019-01-21T17:58:44.534Z,25.97
2019-01-21T18:01:10.952Z,26.63
2019-01-21T18:03:37.373Z,22.80
2019-01-21T18:06:04.962Z,28.93
2019-01-21T18:08:31.388Z,25.67
2019-01-21T18:10:57.804Z,23.67
2019-01-21T18:13:24.323Z,23.03
2019-01-21T18:15:50.913Z,25.97
2019-01-21T18:18:17.508Z,28.87
2019-01-21T18:20:44.023Z,25.23
2019-01-21T18:23:10.813Z,26.07
2019-01-21T18:25:37.431Z,27.03
2019-01-21T18:28:04.073Z,25.07
2019-01-21T18:30:30.692Z,25.43
2019-01-21T18:32:57.089Z,25.53
2019-01-21T18:35:23.688Z,23.47
2019-01-21T18:37:50.108Z,28.13
2019-01-21T18:40:19.431Z,29.97
2019-01-21T18:42:46.082Z,26.57
2019-01-21T18:45:18.238Z,24.80
2019-01-21T18:47:45.078Z,23.50
2019-01-21T18:50:11.567Z,22.67
2019-01-21T18:52:38.095Z,19.80
2019-01-21T18:55:07.199Z,26.03
2019-01-21T18:57:34.627Z,24.00
2019-01-21T19:00:08.143Z,23.67
2019-01-21T19:02:34.594Z,23.90
2019-01-21T19:05:01.240Z,24.40
2019-01-21T19:07:27.579Z,22.67
2019-01-21T19:09:53.931Z,22.83
2019-01-21T19:12:20.363Z,24.77
2019-01-21T19:14:46.872Z,28.97
2019-01-21T19:17:13.389Z,27.50
2019-01-21T19:19:41.296Z,24.13
2019-01-21T19:22:07.782Z,23.97
2019-01-21T19:24:34.277Z,22.97
2019-01-21T19:27:02.058Z,27.00
2019-01-21T19:29:28.509Z,23.30
2019-01-21T19:31:54.953Z,38.27
2019-01-21T19:34:21.581Z,19.83
2019-01-21T19:36:47.940Z,19.93
2019-01-21T19:39:14.597Z,20.23
2019-01-21T19:41:41.233Z,20.60
2019-01-21T19:44:08.751Z,19.37
2019-01-21T19:46:35.223Z,20.27
2019-01-21T19:49:01.728Z,18.80
2019-01-21T19:51:28.324Z,20.90
2019-01-21T19:53:54.889Z,19.63
2019-01-21T19:56:21.301Z,22.80
2019-01-21T19:58:47.747Z,22.63
2019-01-21T20:01:14.251Z,20.40
2019-01-21T20:03:40.768Z,19.93
2019-01-21T20:06:07.186Z,19.83
2019-01-21T20:08:33.603Z,20.60
2019-01-21T20:10:59.953Z,18.87
2019-01-21T20:13:26.351Z,22.40
2019-01-21T20:15:52.740Z,21.90
2019-01-21T20:18:19.122Z,19.80
2019-01-21T20:20:45.649Z,22.63
2019-01-21T20:23:12.056Z,20.57
2019-01-21T20:25:38.407Z,19.77
2019-01-21T20:28:04.865Z,19.23
2019-01-21T20:30:31.252Z,18.63
2019-01-21T20:32:57.644Z,20.57
2019-01-21T20:35:24.018Z,21.27
2019-01-21T20:37:50.397Z,20.80
2019-01-21T20:40:22.178Z,19.67
2019-01-21T20:42:48.640Z,27.63
2019-01-21T20:45:15.761Z,24.27
2019-01-21T20:47:42.283Z,24.67
2019-01-21T20:50:14.340Z,21.97
2019-01-21T20:52:40.880Z,21.03
2019-01-21T20:55:09.936Z,22.03
2019-01-21T20:57:37.036Z,19.63
2019-01-21T21:00:09.507Z,20.63
2019-01-21T21:02:36.637Z,18.23
2019-01-21T21:05:04.959Z,20.17
2019-01-21T21:07:32.669Z,18.37
2019-01-21T21:09:59.809Z,17.60
2019-01-21T21:12:26.727Z,16.80
2019-01-21T21:14:53.401Z,14.70
2019-01-21T21:17:20.122Z,14.50
2019-01-21T21:19:47.049Z,16.13
2019-01-21T21:22:14.025Z,15.73
2019-01-21T21:24:41.375Z,16.20
2019-01-21T21:27:08.420Z,14.53
2019-01-21T21:29:35.197Z,12.97
2019-01-21T21:32:04.358Z,13.57
2019-01-21T21:34:33.068Z,15.73
2019-01-21T21:36:59.926Z,15.63
2019-01-21T21:39:26.612Z,16.73
2019-01-21T21:41:53.568Z,17.60
2019-01-21T21:44:21.333Z,14.83
2019-01-21T21:46:49.335Z,15.43
2019-01-21T21:49:17.295Z,15.77
2019-01-21T21:51:44.112Z,15.60
2019-01-21T21:54:11.024Z,16.60
2019-01-21T21:56:37.923Z,15.53
2019-01-21T21:59:04.630Z,14.17
2019-01-21T22:01:31.414Z,14.70
2019-01-21T22:03:58.179Z,13.70
2019-01-21T22:06:25.013Z,13.80
2019-01-21T22:08:53.367Z,15.23
2019-01-21T22:11:20.108Z,14.90
2019-01-21T22:13:46.982Z,14.57
2019-01-21T22:16:14.002Z,13.07
2019-01-21T22:18:41.030Z,15.27
2019-01-21T22:21:07.764Z,14.80
2019-01-21T22:23:34.543Z,14.87
2019-01-21T22:26:01.417Z,16.07
2019-01-21T22:28:28.024Z,15.37
2019-01-21T22:30:55.071Z,14.90
2019-01-21T22:33:21.476Z,15.07
2019-01-21T22:35:47.879Z,18.80
2019-01-21T22:38:14.292Z,18.23
2019-01-21T22:40:40.753Z,21.67
2019-01-21T22:43:07.269Z,17.33
2019-01-21T22:45:33.740Z,17.13
2019-01-21T22:48:00.202Z,17.13
2019-01-21T22:50:26.675Z,18.43
2019-01-21T22:52:53.038Z,18.30
2019-01-21T22:55:19.556Z,19.23
2019-01-21T22:57:46.004Z,20.87
2019-01-21T23:00:18.254Z,20.23
2019-01-21T23:02:45.414Z,18.63
2019-01-21T23:05:11.825Z,15.97
2019-01-21T23:07:38.302Z,16.67
2019-01-21T23:10:06.841Z,16.90
2019-01-21T23:12:33.476Z,16.23
2019-01-21T23:14:59.813Z,17.47
2019-01-21T23:17:26.501Z,18.13
2019-01-21T23:19:53.136Z,18.83
2019-01-21T23:22:19.608Z,18.00
2019-01-21T23:24:45.993Z,18.77
2019-01-21T23:27:12.661Z,18.07
2019-01-21T23:29:39.075Z,17.97
2019-01-21T23:32:05.471Z,18.80
2019-01-21T23:34:32.133Z,16.87
2019-01-21T23:36:58.647Z,18.50
2019-01-21T23:39:25.121Z,19.03
2019-01-21T23:41:51.669Z,19.63
2019-01-21T23:44:18.279Z,19.70
2019-01-21T23:46:44.705Z,19.87
2019-01-21T23:49:11.484Z,19.10
2019-01-21T23:51:38.063Z,19.10
2019-01-21T23:54:04.566Z,18.13
2019-01-21T23:56:32.275Z,18.20
2019-01-21T23:58:58.917Z,18.03
